This is the latest recevied weather packets stored in our database for station/object HS5SQI-2. If no packets are shown the sender has not sent any weather packets the latest 10 day(s).
| Time | Temp. | Humidity | Pressure | Rain* | Wind** | Luminosity | Snow |
|---|---|---|---|---|---|---|---|
| 1777488475 | 32.22° C | 72% | 1006 hPa | - | - | 0 W/m² | - |
| 1777487851 | 32.78° C | 72% | 1006 hPa | - | - | 0 W/m² | - |
| 1777487227 | 31.67° C | 75% | 1006 hPa | - | - | 0 W/m² | - |
| 1777486603 | 33.33° C | 69% | 1006 hPa | - | - | 0 W/m² | - |
| 1777485981 | 32.22° C | 73% | 1006 hPa | - | - | 0 W/m² | - |
| 1777485356 | 33.33° C | 69% | 1006 hPa | - | - | 0 W/m² | - |
| 1777484733 | 33.89° C | 68% | 1007 hPa | - | - | 0 W/m² | - |
| 1777484108 | 33.33° C | 69% | 1007 hPa | - | - | 0 W/m² | - |
| 1777483482 | 33.89° C | 68% | 1007 hPa | - | - | 0 W/m² | - |
| 1777482859 | 33.33° C | 70% | 1007 hPa | - | - | 0 W/m² | - |
| 1777482233 | 33.33° C | 70% | 1007 hPa | - | - | 0 W/m² | - |
| 1777481610 | 33.33° C | 70% | 1007 hPa | - | - | 0 W/m² | - |
| 1777480985 | 33.33° C | 69% | 1007 hPa | - | - | 0 W/m² | - |
| 1777480362 | 33.89° C | 68% | 1007 hPa | - | - | 0 W/m² | - |
| 1777479739 | 33.33° C | 69% | 1007 hPa | - | - | 0 W/m² | - |
| 1777479115 | 33.89° C | 67% | 1007 hPa | - | - | 0 W/m² | - |
| 1777478493 | 33.89° C | 67% | 1007 hPa | - | - | 0 W/m² | - |
| 1777477868 | 33.89° C | 67% | 1007 hPa | - | - | 0 W/m² | - |
| 1777477244 | 33.89° C | 68% | 1007 hPa | - | - | 0 W/m² | - |
| 1777476622 | 33.33° C | 69% | 1007 hPa | - | - | 0 W/m² | - |
| 1777475999 | 33.89° C | 69% | 1006 hPa | - | - | 0 W/m² | - |
| 1777475375 | 33.89° C | 68% | 1006 hPa | - | - | 0 W/m² | - |
| 1777474753 | 33.89° C | 69% | 1006 hPa | - | - | 0 W/m² | - |
| 1777474130 | 33.89° C | 68% | 1006 hPa | - | - | 0 W/m² | - |
| 1777473507 | 33.89° C | 67% | 1006 hPa | - | - | 0 W/m² | - |
* Rain since midnight (hover to see other rain measurements)
** Current wind speed in m/s (hover to see current wind gust speed)